Time;durP1;ratioP1;P1;durP2;ratioP2;P2;SDS_P1;SDS_P2;PMS_P1;PMS_P2;Temp;Humidity;BMP_temperature;BMP_pressure;BME280_temperature;BME280_humidity;BME280_pressure;Samples;Min_cycle;Max_cycle;Signal;HPM_P1;HPM_P2
2023/04/03 00:01:00;;;;;;;0.00;0.00;;;;;;;3.84;100.00;99995.50;6126747;23;20067;-92
2023/04/03 00:03:26;;;;;;;0.00;0.00;;;;;;;3.67;100.00;99964.16;6125791;23;20430;-91
2023/04/03 00:05:52;;;;;;;0.00;0.00;;;;;;;3.94;100.00;100013.91;6126219;23;20025;-91
2023/04/03 00:08:17;;;;;;;0.00;0.00;;;;;;;3.76;100.00;99983.72;6125589;23;20077;-91
2023/04/03 00:10:43;;;;;;;0.35;0.15;;;;;;;3.85;100.00;100001.75;6125929;23;20021;-92
2023/04/03 00:13:09;;;;;;;0.47;0.28;;;;;;;3.83;100.00;99993.16;6152157;23;20394;-92
2023/04/03 00:15:35;;;;;;;0.08;0.08;;;;;;;3.70;100.00;99957.09;6099152;23;20013;-91
2023/04/03 00:18:02;;;;;;;0.22;0.22;;;;;;;3.96;100.00;99999.81;6126059;23;20037;-91
2023/04/03 00:20:27;;;;;;;0.20;0.20;;;;;;;3.67;100.00;99964.16;6102446;23;20028;-92
2023/04/03 00:22:53;;;;;;;0.20;0.20;;;;;;;3.80;100.00;99966.50;6114726;23;20037;-91
2023/04/03 00:25:19;;;;;;;0.30;0.30;;;;;;;3.89;100.00;99981.38;6096309;23;20018;-91
2023/04/03 00:27:44;;;;;;;0.25;0.25;;;;;;;3.83;100.00;99966.50;6100725;23;20346;-91
2023/04/03 00:30:13;;;;;;;0.00;0.00;;;;;;;3.96;100.00;99986.88;6077542;23;20021;-91
2023/04/03 00:32:39;;;;;;;0.00;0.00;;;;;;;3.73;100.00;99968.06;6125678;23;20350;-91
2023/04/03 00:35:05;;;;;;;0.17;0.17;;;;;;;3.68;100.00;99949.25;6101290;23;20010;-92
2023/04/03 00:37:31;;;;;;;0.15;0.15;;;;;;;3.93;100.00;99987.66;6122389;23;20018;-91
2023/04/03 00:39:56;;;;;;;0.00;0.00;;;;;;;4.02;100.00;99995.47;6124830;23;20012;-90
2023/04/03 00:42:22;;;;;;;0.35;0.17;;;;;;;3.76;100.00;99966.50;6120024;23;20125;-90
2023/04/03 00:44:47;;;;;;;0.10;0.10;;;;;;;4.04;100.00;99993.16;6125746;23;20001;-91
2023/04/03 00:47:16;;;;;;;0.10;0.10;;;;;;;3.71;100.00;99950.44;6151303;23;20436;-90
2023/04/03 00:49:42;;;;;;;1.58;0.80;;;;;;;4.04;100.00;99998.63;6125619;23;20032;-91
2023/04/03 00:52:12;;;;;;;0.00;0.00;;;;;;;3.89;100.00;99981.38;6125985;23;20024;-91
2023/04/03 00:54:38;;;;;;;0.00;0.00;;;;;;;3.93;100.00;99997.84;6125392;23;20048;-91
2023/04/03 00:57:05;;;;;;;0.00;0.00;;;;;;;3.95;100.00;99990.00;6125392;23;20357;-90
2023/04/03 00:59:35;;;;;;;0.98;0.88;;;;;;;3.90;100.00;99982.16;6152299;23;20040;-92
2023/04/03 01:02:01;;;;;;;0.35;0.35;;;;;;;3.91;100.00;99994.72;6125581;23;20021;-92
2023/04/03 01:04:33;;;;;;;0.13;0.13;;;;;;;3.96;100.00;99992.38;6126011;23;20010;-92
2023/04/03 01:07:04;;;;;;;0.00;0.00;;;;;;;3.73;100.00;99968.06;6101015;23;20505;-91
2023/04/03 01:09:30;;;;;;;0.30;0.30;;;;;;;4.02;100.00;100007.25;6100320;23;20013;-91
2023/04/03 01:12:20;;;;;;;0.00;0.00;;;;;;;3.83;100.00;99993.16;6125638;23;20010;-90
2023/04/03 01:14:49;;;;;;;0.03;0.03;;;;;;;3.94;100.00;100013.13;6096405;23;20028;-90
2023/04/03 01:17:28;;;;;;;0.10;0.10;;;;;;;4.06;100.00;100012.72;6065037;23;20081;-92
2023/04/03 01:20:32;;;;;;;0.00;0.00;;;;;;;4.08;100.00;100027.66;6119807;23;20045;-91
2023/04/03 01:23:05;;;;;;;1.00;1.00;;;;;;;4.05;100.00;100022.94;6096160;23;20018;-91
2023/04/03 01:25:31;;;;;;;0.32;0.32;;;;;;;4.01;100.00;99993.91;6095805;23;20346;-90
2023/04/03 01:27:58;;;;;;;0.00;0.00;;;;;;;3.94;100.00;100007.66;6062059;23;20464;-92
2023/04/03 01:30:28;;;;;;;0.00;0.00;;;;;;;4.01;100.00;100015.88;6120035;23;20109;-92
2023/04/03 01:32:54;;;;;;;0.82;0.82;;;;;;;3.75;100.00;99976.69;6071725;23;20068;-91
2023/04/03 01:35:20;;;;;;;0.10;0.10;;;;;;;4.01;100.00;100021.34;6095710;23;20101;-92
2023/04/03 01:37:45;;;;;;;0.00;0.00;;;;;;;3.93;100.00;100004.13;6096334;23;20406;-90
2023/04/03 01:40:11;;;;;;;0.10;0.10;;;;;;;4.02;100.00;100028.41;6111885;23;20014;-91
2023/04/03 01:42:37;;;;;;;0.00;0.00;;;;;;;4.00;100.00;100025.31;6120360;23;20109;-91
2023/04/03 01:45:03;;;;;;;0.00;0.00;;;;;;;3.73;100.00;99994.72;6062238;23;20411;-91
2023/04/03 01:47:29;;;;;;;0.00;0.00;;;;;;;4.05;100.00;100049.59;6095945;23;20025;-91
2023/04/03 01:49:55;;;;;;;0.32;0.30;;;;;;;4.02;100.00;100042.16;6061053;23;20014;-91
2023/04/03 01:52:21;;;;;;;0.00;0.00;;;;;;;3.79;100.00;100015.09;6095789;23;20454;-92
2023/04/03 01:54:46;;;;;;;0.60;0.60;;;;;;;3.94;100.00;100024.91;6095890;23;20010;-91
2023/04/03 01:57:14;;;;;;;0.00;0.00;;;;;;;3.89;100.00;100030.78;6087772;23;20024;-90
2023/04/03 01:59:41;;;;;;;0.10;0.10;;;;;;;4.04;100.00;100054.31;6096432;23;20368;-91
2023/04/03 02:02:06;;;;;;;0.47;0.35;;;;;;;3.92;100.00;100029.22;6086592;23;20010;-92
2023/04/03 02:04:32;;;;;;;0.15;0.15;;;;;;;4.02;100.00;100044.88;6095723;23;20394;-90
2023/04/03 02:06:57;;;;;;;0.00;0.00;;;;;;;3.94;100.00;100022.16;6109420;23;20473;-90
2023/04/03 02:09:24;;;;;;;0.00;0.00;;;;;;;3.78;100.00;100007.25;6095219;23;20081;-90
2023/04/03 02:11:51;;;;;;;0.28;0.20;;;;;;;3.72;100.00;100006.88;6096561;23;20026;-91
2023/04/03 02:14:18;;;;;;;0.00;0.00;;;;;;;4.01;100.00;100043.31;6105191;23;20014;-91
2023/04/03 02:16:44;;;;;;;0.10;0.10;;;;;;;4.03;100.00;100052.75;6124230;23;20025;-90
2023/04/03 02:19:10;;;;;;;0.10;0.10;;;;;;;3.76;100.00;100013.91;6152809;23;20194;-92
2023/04/03 02:21:36;;;;;;;0.15;0.15;;;;;;;3.98;100.00;100052.34;6127812;23;20060;-91
2023/04/03 02:24:01;;;;;;;0.10;0.10;;;;;;;4.00;100.00;100053.53;6103340;23;20076;-92
2023/04/03 02:26:27;;;;;;;0.17;0.17;;;;;;;4.07;100.00;100053.53;6128932;23;20017;-91
2023/04/03 02:28:52;;;;;;;0.15;0.15;;;;;;;4.09;100.00;100055.84;6104490;23;20509;-91
2023/04/03 02:31:18;;;;;;;1.05;0.95;;;;;;;4.17;100.00;100057.44;6097386;23;20024;-90
2023/04/03 02:33:45;;;;;;;0.50;0.50;;;;;;;4.17;100.00;100057.44;6126574;23;20018;-91
2023/04/03 02:36:13;;;;;;;0.70;0.70;;;;;;;4.19;100.00;100060.56;6103393;23;20185;-91
2023/04/03 02:38:42;;;;;;;0.00;0.00;;;;;;;4.16;100.00;100051.19;6150283;23;20005;-91
2023/04/03 02:41:10;;;;;;;0.38;0.38;;;;;;;4.18;100.00;100057.03;6102238;23;20096;-92
2023/04/03 02:43:37;;;;;;;0.20;0.20;;;;;;;4.18;100.00;100054.28;6126833;23;20018;-92
2023/04/03 02:46:04;;;;;;;0.30;0.30;;;;;;;4.16;100.00;100044.91;6126780;23;20064;-91
2023/04/03 02:48:30;;;;;;;0.22;0.22;;;;;;;4.23;100.00;100050.38;6099010;23;20351;-91
2023/04/03 02:50:56;;;;;;;0.52;0.52;;;;;;;4.29;100.00;100048.78;6115761;23;20064;-91
2023/04/03 02:53:22;;;;;;;0.00;0.00;;;;;;;4.21;100.00;100041.72;6097720;23;20032;-91
2023/04/03 02:55:49;;;;;;;0.00;0.00;;;;;;;4.23;100.00;100058.63;6126740;23;20020;-91
2023/04/03 02:58:15;;;;;;;0.20;0.20;;;;;;;4.27;100.00;100053.91;6102402;23;20096;-92
2023/04/03 03:00:40;;;;;;;0.15;0.15;;;;;;;4.24;100.00;100057.44;6151137;23;20037;-91
2023/04/03 03:03:06;;;;;;;0.30;0.30;;;;;;;4.25;100.00;100059.00;6101932;23;20013;-91
2023/04/03 03:05:32;;;;;;;0.30;0.30;;;;;;;4.34;100.00;100073.09;6126687;23;20024;-91
2023/04/03 03:07:58;;;;;;;0.65;0.65;;;;;;;4.33;100.00;100071.53;6101606;23;20153;-90
2023/04/03 03:10:24;;;;;;;0.20;0.20;;;;;;;4.34;100.00;100066.81;6125893;23;20406;-91
2023/04/03 03:12:49;;;;;;;0.00;0.00;;;;;;;4.30;100.00;100057.81;6126613;23;20022;-91
2023/04/03 03:15:17;;;;;;;0.10;0.10;;;;;;;4.24;100.00;100071.16;6098130;23;20535;-91
2023/04/03 03:17:43;;;;;;;0.10;0.10;;;;;;;4.31;100.00;100078.59;6127199;23;20028;-91
2023/04/03 03:20:09;;;;;;;0.75;0.75;;;;;;;4.31;100.00;100079.41;6123638;23;20020;-92
2023/04/03 03:22:35;;;;;;;0.22;0.22;;;;;;;4.34;100.00;100078.59;6102010;23;20014;-92
2023/04/03 03:25:02;;;;;;;0.22;0.22;;;;;;;4.35;100.00;100087.63;6102299;23;20060;-91
2023/04/03 03:27:27;;;;;;;0.00;0.00;;;;;;;4.33;100.00;100082.50;6126225;23;20022;-92
2023/04/03 03:29:53;;;;;;;0.00;0.00;;;;;;;4.04;100.00;100042.56;6102128;23;20018;-92
2023/04/03 03:32:20;;;;;;;0.10;0.10;;;;;;;4.21;100.00;100060.94;6125504;23;20147;-91
2023/04/03 03:34:45;;;;;;;0.10;0.10;;;;;;;4.27;100.00;100078.63;6126731;23;20044;-91
2023/04/03 03:37:11;;;;;;;0.22;0.22;;;;;;;4.11;100.00;100048.03;6077838;23;20024;-91
2023/04/03 03:39:37;;;;;;;0.00;0.00;;;;;;;4.21;100.00;100059.00;6125987;23;20006;-91
2023/04/03 03:42:05;;;;;;;0.00;0.00;;;;;;;4.22;100.00;100076.25;6126383;23;20020;-91
2023/04/03 03:44:31;;;;;;;1.35;0.63;;;;;;;4.17;100.00;100060.16;6101808;23;20023;-90
2023/04/03 03:46:57;;;;;;;0.70;0.70;;;;;;;4.25;100.00;100069.97;6101851;23;20010;-90
2023/04/03 03:49:23;;;;;;;0.65;0.65;;;;;;;3.98;100.00;100033.13;6077608;23;20013;-92
2023/04/03 03:51:50;;;;;;;0.17;0.17;;;;;;;3.93;100.00;100037.03;6126360;23;20009;-91
2023/04/03 03:54:16;;;;;;;0.30;0.30;;;;;;;3.89;100.00;100041.75;6126039;23;20079;-91
2023/04/03 03:56:42;;;;;;;1.95;0.68;;;;;;;4.06;100.00;100071.16;6125977;23;20438;-91
2023/04/03 03:59:08;;;;;;;0.20;0.20;;;;;;;4.06;100.00;100068.41;6101717;23;20501;-91
2023/04/03 04:01:33;;;;;;;0.03;0.03;;;;;;;3.93;100.00;100058.22;6126037;23;20101;-91
2023/04/03 04:03:59;;;;;;;0.20;0.20;;;;;;;3.98;100.00;100077.03;6102022;23;20020;-91
2023/04/03 04:06:29;;;;;;;0.55;0.52;;;;;;;3.87;100.00;100065.28;6079331;23;20013;-92
2023/04/03 04:08:59;;;;;;;0.00;0.00;;;;;;;3.82;100.00;100060.16;6125137;23;20017;-91
2023/04/03 04:11:24;;;;;;;1.65;1.17;;;;;;;3.78;100.00;100045.66;6151925;23;20027;-91
2023/04/03 04:13:54;;;;;;;0.55;0.55;;;;;;;3.49;100.00;100029.19;6121142;23;20076;-92
2023/04/03 04:16:24;;;;;;;0.25;0.25;;;;;;;3.53;100.00;100035.44;6096336;23;20028;-92
2023/04/03 04:18:50;;;;;;;0.00;0.00;;;;;;;3.67;100.00;100073.88;6096924;23;20803;-92
2023/04/03 04:21:16;;;;;;;0.00;0.00;;;;;;;3.55;100.00;100049.56;6145163;23;20020;-92
2023/04/03 04:23:43;;;;;;;2.90;0.80;;;;;;;3.51;100.00;100040.56;6124186;23;20561;-91
2023/04/03 04:26:09;;;;;;;0.57;0.57;;;;;;;3.41;100.00;100030.34;6125474;23;20326;-91
2023/04/03 04:28:37;;;;;;;0.47;0.32;;;;;;;3.63;100.00;100066.81;6125649;23;20032;-92
2023/04/03 04:31:04;;;;;;;0.13;0.13;;;;;;;3.53;100.00;100057.38;6149483;23;20017;-92
2023/04/03 04:33:30;;;;;;;0.00;0.00;;;;;;;3.41;100.00;100049.53;6101697;23;20017;-91
2023/04/03 04:35:58;;;;;;;1.23;1.20;;;;;;;3.54;100.00;100080.91;6079171;23;20411;-91
2023/04/03 04:38:24;;;;;;;0.65;0.65;;;;;;;3.30;100.00;100054.22;6101709;23;20021;-91
2023/04/03 04:40:52;;;;;;;0.00;0.00;;;;;;;3.51;100.00;100094.63;6125502;23;20014;-91
2023/04/03 04:43:18;;;;;;;0.32;0.25;;;;;;;3.38;100.00;100077.72;6129878;23;20017;-91
2023/04/03 04:45:47;;;;;;;0.10;0.10;;;;;;;3.34;100.00;100087.91;6109840;23;20406;-90
2023/04/03 04:48:13;;;;;;;0.00;0.00;;;;;;;3.23;100.00;100078.88;6102406;23;20521;-93
2023/04/03 04:50:39;;;;;;;0.35;0.35;;;;;;;3.25;100.00;100084.72;6127778;23;20096;-92
2023/04/03 04:53:05;;;;;;;0.20;0.20;;;;;;;3.30;100.00;100098.06;6156168;23;20088;-93
2023/04/03 04:55:31;;;;;;;0.82;0.82;;;;;;;3.39;100.00;100105.94;6085390;23;20060;-92
2023/04/03 04:57:57;;;;;;;0.10;0.10;;;;;;;3.25;100.00;100098.44;6134135;23;20417;-92
2023/04/03 05:00:23;;;;;;;0.10;0.10;;;;;;;3.22;100.00;100104.69;6108431;23;20017;-93
2023/04/03 05:02:51;;;;;;;0.00;0.00;;;;;;;3.24;100.00;100116.03;6130599;23;20097;-93
2023/04/03 05:05:18;;;;;;;0.10;0.10;;;;;;;3.36;100.00;100123.94;6131421;23;20005;-93
2023/04/03 05:07:44;;;;;;;0.00;0.00;;;;;;;3.42;100.00;100116.13;6104805;23;20437;-92
2023/04/03 05:10:11;;;;;;;0.65;0.65;;;;;;;3.48;100.00;100125.56;6158368;23;20017;-91
2023/04/03 05:12:37;;;;;;;0.10;0.10;;;;;;;3.45;100.00;100121.63;6162298;23;20021;-95
2023/04/03 05:15:05;;;;;;;0.57;0.57;;;;;;;3.47;100.00;100118.50;6080447;23;20018;-95
2023/04/03 05:17:32;;;;;;;0.10;0.10;;;;;;;3.45;100.00;100127.09;6122970;23;20068;-94
2023/04/03 05:19:58;;;;;;;0.63;0.63;;;;;;;3.56;100.00;100122.44;6124083;23;20029;-93
2023/04/03 05:22:26;;;;;;;0.13;0.13;;;;;;;3.33;100.00;100077.31;6147820;23;20040;-93
2023/04/03 05:24:55;;;;;;;0.32;0.32;;;;;;;3.67;100.00;100123.25;6122461;23;20048;-96
2023/04/03 05:27:23;;;;;;;0.47;0.47;;;;;;;3.37;100.00;100059.69;6077573;23;20045;-94
2023/04/03 05:30:04;;;;;;;0.20;0.20;;;;;;;3.42;100.00;100044.84;6105633;23;20085;-96
2023/04/03 05:32:32;;;;;;;0.00;0.00;;;;;;;3.75;100.00;100102.13;6105312;23;20017;-96
2023/04/03 05:35:27;;;;;;;2.28;1.05;;;;;;;3.94;100.00;100120.94;6099276;23;20045;-93
2023/04/03 05:37:56;;;;;;;0.60;0.60;;;;;;;4.08;100.00;100120.19;6127123;23;20022;-96
2023/04/03 05:40:23;;;;;;;0.45;0.45;;;;;;;4.27;100.00;100128.03;6100265;23;20018;-94
2023/04/03 05:42:53;;;;;;;0.90;0.90;;;;;;;4.17;100.00;100109.59;6078730;23;20435;-94
2023/04/03 05:45:20;;;;;;;0.50;0.50;;;;;;;4.22;100.00;100098.22;6078072;23;20045;-94
2023/04/03 05:47:47;;;;;;;0.10;0.10;;;;;;;4.10;100.00;100093.13;6124437;23;20006;-95
2023/04/03 05:50:14;;;;;;;0.15;0.15;;;;;;;4.33;100.00;100140.19;6126950;23;20044;-94
2023/04/03 05:52:44;;;;;;;0.60;0.60;;;;;;;4.19;100.00;100153.94;6124717;23;20088;-94
2023/04/03 05:55:10;;;;;;;0.35;0.35;;;;;;;4.21;100.00;100146.06;6097922;23;20014;-91
2023/04/03 05:57:36;;;;;;;0.10;0.10;;;;;;;4.21;100.00;100146.84;6072631;23;20021;-93
2023/04/03 06:00:06;;;;;;;0.50;0.50;;;;;;;4.07;100.00;100135.09;6073113;23;20021;-93
2023/04/03 06:02:39;;;;;;;1.55;1.38;;;;;;;4.11;100.00;100146.84;6120698;23;20021;-93
2023/04/03 06:05:11;;;;;;;0.40;0.32;;;;;;;3.98;100.00;100132.72;6097398;23;20069;-93
2023/04/03 06:07:37;;;;;;;1.45;1.30;;;;;;;3.83;100.00;100097.41;6122996;23;20069;-93
2023/04/03 06:10:03;;;;;;;0.28;0.28;;;;;;;3.86;100.00;100104.88;6120220;23;20014;-93
2023/04/03 06:12:29;;;;;;;0.45;0.45;;;;;;;4.06;100.00;100126.06;6096982;23;20097;-92
2023/04/03 06:14:55;;;;;;;0.65;0.43;;;;;;;4.19;100.00;100143.72;6121012;23;20050;-93
2023/04/03 06:17:22;;;;;;;0.43;0.43;;;;;;;4.53;100.00;100168.81;6120665;23;20477;-94
2023/04/03 06:19:47;;;;;;;0.88;0.88;;;;;;;4.55;100.00;100161.00;6122032;23;20002;-92
2023/04/03 06:22:14;;;;;;;0.17;0.17;;;;;;;4.50;100.00;100147.66;6122118;23;20014;-93
2023/04/03 06:24:40;;;;;;;0.60;0.60;;;;;;;4.66;100.00;100161.75;6121102;23;20006;-92
2023/04/03 06:27:06;;;;;;;0.05;0.05;;;;;;;4.53;100.00;100140.59;6121023;23;20076;-93
2023/04/03 06:29:31;;;;;;;0.28;0.28;;;;;;;4.72;100.00;100172.38;6073036;23;20025;-94
2023/04/03 06:31:57;;;;;;;0.98;0.98;;;;;;;4.54;100.00;100142.94;6121502;23;20071;-93
2023/04/03 06:34:22;;;;;;;0.88;0.80;;;;;;;4.62;100.00;100171.97;6121746;23;20081;-94
2023/04/03 06:36:51;;;;;;;0.10;0.10;;;;;;;4.51;100.00;100134.69;6097844;23;20012;-95
2023/04/03 06:39:20;;;;;;;0.82;0.38;;;;;;;4.84;100.00;100180.19;6096377;23;20018;-94
2023/04/03 06:41:46;;;;;;;0.10;0.10;;;;;;;4.62;100.00;100150.00;6120736;23;20470;-94
2023/04/03 06:44:13;;;;;;;0.20;0.20;;;;;;;4.79;100.00;100164.09;6096000;23;20014;-94
2023/04/03 06:46:39;;;;;;;0.77;0.77;;;;;;;4.95;100.00;100180.97;6097087;23;20010;-95
2023/04/03 06:49:07;;;;;;;0.20;0.20;;;;;;;4.61;100.00;100125.69;6120252;23;20105;-95
2023/04/03 06:51:33;;;;;;;0.38;0.38;;;;;;;5.01;100.00;100191.19;6120654;23;20026;-94
2023/04/03 06:53:59;;;;;;;0.00;0.00;;;;;;;4.98;100.00;100194.69;6120495;23;20013;-94
2023/04/03 06:56:26;;;;;;;0.17;0.17;;;;;;;4.65;100.00;100131.94;6121513;23;20085;-95
2023/04/03 06:58:54;;;;;;;1.73;0.98;;;;;;;4.85;100.00;100162.53;6084906;23;20090;-93
2023/04/03 07:01:20;;;;;;;0.90;0.88;;;;;;;4.85;100.00;100168.81;6072287;23;20014;-93
2023/04/03 07:03:50;;;;;;;0.28;0.28;;;;;;;4.82;100.00;100164.09;6122311;23;20450;-93
2023/04/03 07:06:16;;;;;;;0.50;0.50;;;;;;;4.83;100.00;100170.38;6097679;23;20051;-95
2023/04/03 07:08:43;;;;;;;2.22;1.70;;;;;;;4.88;100.00;100168.03;6098124;23;20022;-93
2023/04/03 07:11:09;;;;;;;0.55;0.55;;;;;;;5.07;100.00;100200.59;6074575;23;20014;-94
2023/04/03 07:13:35;;;;;;;0.45;0.45;;;;;;;4.86;100.00;100162.13;6098361;23;20025;-92
2023/04/03 07:16:00;;;;;;;1.25;0.93;;;;;;;5.14;100.00;100191.53;6123200;23;20465;-93
2023/04/03 07:18:26;;;;;;;0.03;0.03;;;;;;;5.13;100.00;100192.72;6074404;23;20412;-93
2023/04/03 07:20:52;;;;;;;0.30;0.30;;;;;;;5.07;100.00;100192.34;6122679;23;20025;-93
2023/04/03 07:23:18;;;;;;;0.55;0.55;;;;;;;5.10;99.00;100169.53;6098426;23;20002;-94
2023/04/03 07:25:48;;;;;;;0.10;0.10;;;;;;;5.23;96.84;100183.66;6097843;23;20053;-93
2023/04/03 07:28:14;;;;;;;0.75;0.75;;;;;;;5.23;98.03;100177.34;6098192;23;20061;-93
2023/04/03 07:30:45;;;;;;;0.25;0.25;;;;;;;5.42;99.47;100202.44;6098086;23;20056;-95
2023/04/03 07:33:11;;;;;;;0.25;0.15;;;;;;;5.34;99.54;100192.66;6097852;23;20026;-93
2023/04/03 07:35:37;;;;;;;0.10;0.10;;;;;;;5.28;99.06;100185.22;6074409;23;20014;-93
2023/04/03 07:38:03;;;;;;;0.10;0.10;;;;;;;5.52;97.34;100200.84;6098673;23;20017;-94
2023/04/03 07:40:28;;;;;;;14.60;1.85;;;;;;;5.48;97.58;100189.84;6123225;23;20088;-94
2023/04/03 07:42:56;;;;;;;0.43;0.43;;;;;;;5.63;95.00;100185.06;6122483;23;20014;-92
2023/04/03 07:45:22;;;;;;;0.95;0.70;;;;;;;5.81;94.66;100202.31;6097457;23;20010;-93
2023/04/03 07:47:48;;;;;;;1.08;1.02;;;;;;;5.87;93.98;100188.91;6098682;23;20033;-93
2023/04/03 07:50:14;;;;;;;2.42;1.35;;;;;;;6.06;91.07;100200.25;6097672;23;20013;-94
2023/04/03 07:52:40;;;;;;;0.32;0.32;;;;;;;5.93;90.08;100181.81;6122935;23;20466;-94
2023/04/03 07:55:06;;;;;;;0.00;0.00;;;;;;;5.84;86.22;100170.44;6073418;23;20006;-94
2023/04/03 07:57:32;;;;;;;0.10;0.10;;;;;;;5.98;86.94;100206.19;6097567;23;20089;-96
2023/04/03 07:59:57;;;;;;;0.00;0.00;;;;;;;5.86;86.31;100203.84;6121783;23;20033;-95
2023/04/03 08:02:23;;;;;;;0.00;0.00;;;;;;;5.59;87.21;100184.31;6073358;23;20176;-95
2023/04/03 08:04:48;;;;;;;0.98;0.98;;;;;;;5.64;87.36;100179.19;6098047;23;20419;-95
2023/04/03 08:07:14;;;;;;;0.88;0.85;;;;;;;5.71;86.63;100191.31;6097740;23;20022;-94
2023/04/03 08:09:40;;;;;;;0.10;0.10;;;;;;;5.84;84.73;100200.72;6097410;23;20014;-94
2023/04/03 08:12:06;;;;;;;0.32;0.32;;;;;;;5.84;86.92;100208.97;6122441;23;20017;-95
2023/04/03 08:14:34;;;;;;;0.70;0.70;;;;;;;5.66;88.90;100180.75;6114794;23;20017;-95
2023/04/03 08:17:00;;;;;;;0.10;0.10;;;;;;;5.78;86.86;100210.59;6128219;23;20397;-94
2023/04/03 08:19:26;;;;;;;1.00;0.88;;;;;;;5.72;87.98;100217.66;6078370;23;20018;-94
2023/04/03 08:21:53;;;;;;;0.20;0.20;;;;;;;5.56;88.26;100201.63;6127360;23;20026;-94
2023/04/03 08:24:18;;;;;;;0.43;0.43;;;;;;;5.38;89.09;100179.66;6102367;23;20525;-94
2023/04/03 08:26:44;;;;;;;0.10;0.10;;;;;;;5.71;90.29;100232.59;6127452;23;20033;-94
2023/04/03 08:29:09;;;;;;;0.30;0.30;;;;;;;5.59;91.86;100192.56;6078650;23;20089;-95
2023/04/03 08:31:35;;;;;;;0.15;0.15;;;;;;;5.77;91.51;100211.75;6153777;23;20006;-95
2023/04/03 08:34:01;;;;;;;0.20;0.20;;;;;;;5.92;91.45;100225.09;6104078;23;20021;-94
2023/04/03 08:36:28;;;;;;;0.40;0.40;;;;;;;5.87;90.76;100213.69;6103537;23;20446;-95
2023/04/03 08:38:55;;;;;;;0.85;0.85;;;;;;;6.07;90.49;100225.78;6126764;23;20383;-94
2023/04/03 08:41:35;;;;;;;0.40;0.40;;;;;;;6.03;88.67;100203.00;6127195;23;20017;-93
2023/04/03 08:44:22;;;;;;;0.17;0.17;;;;;;;6.32;89.17;100209.09;6102677;23;20457;-94
2023/04/03 08:47:02;;;;;;;0.65;0.65;;;;;;;6.43;82.24;100215.34;6151174;23;20021;-93
2023/04/03 08:49:50;;;;;;;0.50;0.50;;;;;;;6.38;83.21;100202.00;6126997;23;20476;-93
2023/04/03 08:52:46;;;;;;;0.60;0.60;;;;;;;6.37;83.10;100201.22;6128356;23;20010;-93
2023/04/03 08:55:18;;;;;;;0.38;0.30;;;;;;;6.44;82.94;100217.69;6078529;23;20110;-93
2023/04/03 08:57:45;;;;;;;0.20;0.20;;;;;;;6.43;83.77;100227.13;6154917;23;20438;-93
2023/04/03 09:00:20;;;;;;;0.10;0.10;;;;;;;6.41;81.16;100212.97;6103431;23;20067;-93
2023/04/03 09:02:48;;;;;;;0.57;0.57;;;;;;;6.78;81.87;100237.13;6102419;23;20097;-93
2023/04/03 09:05:25;;;;;;;0.20;0.20;;;;;;;7.34;71.96;100216.50;6101919;23;20014;-93
2023/04/03 09:08:00;;;;;;;0.08;0.08;;;;;;;7.64;69.17;100220.50;6151309;23;20013;-92
2023/04/03 09:10:32;;;;;;;0.20;0.20;;;;;;;8.04;69.17;100225.13;6101208;23;20025;-96
2023/04/03 09:13:30;;;;;;;0.60;0.60;;;;;;;8.40;68.20;100223.44;6102789;23;20446;-94
2023/04/03 09:15:56;;;;;;;0.20;0.20;;;;;;;8.25;63.63;100224.78;6101369;23;20272;-93
2023/04/03 09:18:39;;;;;;;2.72;0.52;;;;;;;7.55;68.50;100225.72;6078070;23;20090;-93
2023/04/03 09:21:15;;;;;;;7.10;2.17;;;;;;;7.26;68.50;100228.78;6127117;23;20085;-93
2023/04/03 09:23:47;;;;;;;0.32;0.32;;;;;;;6.87;70.32;100239.41;6125613;23;20028;-93
2023/04/03 09:26:19;;;;;;;0.20;0.20;;;;;;;7.02;71.20;100244.41;6126665;23;20425;-93
2023/04/03 09:28:45;;;;;;;0.30;0.30;;;;;;;7.62;69.08;100228.41;6101899;23;20028;-95
2023/04/03 09:31:26;;;;;;;0.60;0.60;;;;;;;8.27;63.03;100227.94;6125815;23;20012;-94
2023/04/03 09:33:56;;;;;;;0.43;0.43;;;;;;;8.30;56.86;100234.63;6126435;23;20068;-94
2023/04/03 09:36:47;;;;;;;0.32;0.32;;;;;;;8.05;53.50;100225.91;6102721;23;20354;-93
2023/04/03 09:39:28;;;;;;;0.05;0.05;;;;;;;8.50;51.45;100231.97;6102126;23;20076;-93
2023/04/03 09:42:15;;;;;;;0.00;0.00;;;;;;;8.76;49.05;100200.75;6127183;23;20044;-93
2023/04/03 09:44:42;;;;;;;0.00;0.00;;;;;;;9.28;49.32;100210.09;6101995;23;20006;-94
2023/04/03 09:47:18;;;;;;;0.10;0.10;;;;;;;9.67;49.26;100225.16;6126440;23;20434;-93
2023/04/03 09:49:44;;;;;;;0.00;0.00;;;;;;;9.91;46.77;100218.31;6150529;23;20009;-93
2023/04/03 09:52:24;;;;;;;0.35;0.30;;;;;;;9.58;45.11;100217.44;6126958;23;20010;-95
2023/04/03 09:54:50;;;;;;;0.30;0.25;;;;;;;9.54;45.53;100227.81;6126032;23;20009;-95
2023/04/03 09:57:15;;;;;;;0.45;0.40;;;;;;;9.45;46.51;100174.19;6079397;23;20013;-93
2023/04/03 10:00:04;;;;;;;0.00;0.00;;;;;;;9.98;46.93;100222.97;6101770;23;20450;-94
2023/04/03 10:02:42;;;;;;;0.40;0.40;;;;;;;10.06;44.02;100185.56;6127894;23;20091;-93
2023/04/03 10:05:27;;;;;;;0.55;0.55;;;;;;;9.97;44.99;100211.09;6078589;23;20014;-94
2023/04/03 10:08:09;;;;;;;0.28;0.28;;;;;;;9.91;45.29;100193.41;6126771;23;20025;-94
2023/04/03 10:10:35;;;;;;;0.15;0.15;;;;;;;10.33;45.29;100185.38;6150512;23;20029;-93
2023/04/03 10:13:05;;;;;;;0.00;0.00;;;;;;;10.20;45.30;100213.78;6116665;23;20018;-94
2023/04/03 10:15:36;;;;;;;0.20;0.20;;;;;;;9.84;45.04;100207.41;6126579;23;20022;-93
2023/04/03 10:18:07;;;;;;;0.17;0.17;;;;;;;9.93;44.88;100171.59;6103346;23;20218;-93
2023/04/03 10:20:44;;;;;;;0.30;0.30;;;;;;;9.93;45.72;100212.38;6078643;23;20075;-96
2023/04/03 10:23:49;;;;;;;0.03;0.03;;;;;;;9.88;44.13;100221.97;6102548;23;20020;-92
2023/04/03 10:26:36;;;;;;;0.00;0.00;;;;;;;9.91;42.44;100200.94;6073132;23;20157;-93
2023/04/03 10:29:26;;;;;;;0.00;0.00;;;;;;;9.77;42.30;100204.78;6102441;23;20013;-94
2023/04/03 10:31:55;;;;;;;0.20;0.20;;;;;;;9.74;44.11;100200.91;6126036;23;20021;-95
2023/04/03 10:34:31;;;;;;;0.20;0.20;;;;;;;9.66;44.84;100212.53;6125784;23;20014;-94
2023/04/03 10:37:16;;;;;;;0.00;0.00;;;;;;;9.80;45.96;100207.47;6102148;23;20018;-94
2023/04/03 10:39:57;;;;;;;0.10;0.10;;;;;;;9.80;46.05;100203.94;6150157;23;20112;-96
2023/04/03 10:43:01;;;;;;;0.28;0.28;;;;;;;8.97;47.65;100200.41;6103166;23;20080;-94
2023/04/03 10:45:50;;;;;;;0.00;0.00;;;;;;;8.52;48.24;100207.47;6129443;23;20025;-94
2023/04/03 10:48:37;;;;;;;0.00;0.00;;;;;;;8.51;48.21;100214.19;6154137;23;20037;-93
2023/04/03 10:51:27;;;;;;;1.17;0.73;;;;;;;8.44;48.11;100206.81;6128581;23;20045;-94
2023/04/03 10:53:55;;;;;;;0.13;0.13;;;;;;;8.36;49.67;100208.91;6104381;23;20026;-92
2023/04/03 10:56:39;;;;;;;0.17;0.17;;;;;;;8.20;49.82;100200.41;6152660;23;20032;-94
2023/04/03 10:59:11;;;;;;;0.10;0.10;;;;;;;8.07;49.86;100202.19;6128693;23;20112;-93
2023/04/03 11:01:40;;;;;;;0.47;0.35;;;;;;;8.31;51.71;100192.78;6127957;23;20076;-94
2023/04/03 11:04:07;;;;;;;0.00;0.00;;;;;;;8.76;50.67;100189.69;6128025;23;20104;-96
2023/04/03 11:06:41;;;;;;;0.30;0.30;;;;;;;8.70;49.50;100188.59;6124754;23;20021;-93
2023/04/03 11:09:28;;;;;;;0.25;0.25;;;;;;;8.22;48.34;100192.47;6103311;23;20020;-95
2023/04/03 11:12:03;;;;;;;0.10;0.10;;;;;;;7.94;46.89;100195.63;6127884;23;20200;-94
2023/04/03 11:14:34;;;;;;;0.20;0.20;;;;;;;8.47;48.53;100194.13;6127238;23;20394;-94
2023/04/03 11:17:18;;;;;;;0.22;0.22;;;;;;;9.15;47.01;100200.84;6103315;23;20013;-95
2023/04/03 11:20:08;;;;;;;0.17;0.17;;;;;;;9.27;45.54;100202.22;6151912;23;20025;-93
2023/04/03 11:22:58;;;;;;;0.30;0.30;;;;;;;9.03;46.36;100203.44;6152636;23;20018;-94
2023/04/03 11:25:25;;;;;;;0.90;0.73;;;;;;;8.64;47.86;100182.78;6078689;23;20481;-94
2023/04/03 11:27:57;;;;;;;0.00;0.00;;;;;;;8.38;47.29;100209.25;6127255;23;20033;-94
2023/04/03 11:30:38;;;;;;;0.82;0.82;;;;;;;8.21;48.40;100215.03;6102272;23;20076;-95
2023/04/03 11:33:13;;;;;;;0.55;0.35;;;;;;;7.97;47.13;100214.94;6152007;23;20064;-94
2023/04/03 11:35:43;;;;;;;0.32;0.22;;;;;;;7.84;48.44;100202.88;6127686;23;20072;-96
2023/04/03 11:38:17;;;;;;;0.17;0.17;;;;;;;7.58;48.17;100217.41;6103271;23;20013;-95
2023/04/03 11:40:44;;;;;;;0.10;0.10;;;;;;;7.47;48.69;100209.25;6102528;23;20045;-95